Virginia, Nebraska
Current Conditions -  °F | °C
As of 2:15 PM on Monday 22 Dec 2014 (Local Time) from KBIE Reporting Station
Overcast Overcast  
Wind Chill: 39°   Ceiling: 2400
Heat Index: 44°   Visibility: 10mi
Dew Point: 40°   Wind: 9mph
Humidity: 88%   Direction: 300°WNW
Pressure: 29.43"   Gusts: NA
Location:  40.25°N, 96.5°W
Report Text: KBIE 222015Z AUTO 30008KT 10SM SCT016 OVC024 07/05 A2943 RMK AO2 T00650046
Loading
Personal Weather Stations






























Interactive Weather Map New forecast layout! Learn more

10-Day Weather Forecast

Advertisements
Track Severe Weather on mobile